sensor_id;sensor_type;location;lat;lon;timestamp;P1;durP1;ratioP1;P2;durP2;ratioP2
68993;SDS011;56054;50.968;5.816;2023-02-13T06:15:35;22.07;;;12.20;;
68993;SDS011;56054;50.968;5.816;2023-02-13T06:18:46;23.77;;;10.97;;
68993;SDS011;56054;50.968;5.816;2023-02-13T06:21:53;22.47;;;11.57;;
68993;SDS011;56054;50.968;5.816;2023-02-13T06:25:10;26.27;;;11.73;;
68993;SDS011;56054;50.968;5.816;2023-02-13T06:28:16;28.97;;;11.07;;
68993;SDS011;56054;50.968;5.816;2023-02-13T06:31:23;28.53;;;11.93;;
68993;SDS011;56054;50.968;5.816;2023-02-13T06:34:36;24.33;;;10.50;;
68993;SDS011;56054;50.968;5.816;2023-02-13T06:38:07;23.77;;;12.43;;
68993;SDS011;56054;50.968;5.816;2023-02-13T06:41:16;22.83;;;12.00;;
68993;SDS011;56054;50.968;5.816;2023-02-13T06:44:27;22.97;;;10.73;;
68993;SDS011;56054;50.968;5.816;2023-02-13T06:47:43;25.07;;;10.63;;
68993;SDS011;56054;50.968;5.816;2023-02-13T06:50:56;23.30;;;10.47;;
68993;SDS011;56054;50.968;5.816;2023-02-13T06:57:57;21.27;;;10.23;;
68993;SDS011;56054;50.968;5.816;2023-02-13T07:01:22;25.00;;;11.23;;
68993;SDS011;56054;50.968;5.816;2023-02-13T07:04:32;22.60;;;11.20;;
68993;SDS011;56054;50.968;5.816;2023-02-13T07:11:26;24.67;;;12.43;;
68993;SDS011;56054;50.968;5.816;2023-02-13T07:14:36;26.73;;;12.03;;
68993;SDS011;56054;50.968;5.816;2023-02-13T07:17:43;23.23;;;10.60;;
68993;SDS011;56054;50.968;5.816;2023-02-13T07:25:08;25.43;;;11.53;;
68993;SDS011;56054;50.968;5.816;2023-02-13T07:28:20;23.10;;;10.87;;
68993;SDS011;56054;50.968;5.816;2023-02-13T07:31:30;23.10;;;11.10;;
68993;SDS011;56054;50.968;5.816;2023-02-13T07:34:40;23.23;;;11.40;;
68993;SDS011;56054;50.968;5.816;2023-02-13T07:38:01;24.13;;;12.17;;
68993;SDS011;56054;50.968;5.816;2023-02-13T07:41:13;23.53;;;11.93;;
68993;SDS011;56054;50.968;5.816;2023-02-13T07:44:20;26.50;;;11.80;;
68993;SDS011;56054;50.968;5.816;2023-02-13T07:47:37;29.40;;;11.97;;
68993;SDS011;56054;50.968;5.816;2023-02-13T07:50:46;29.47;;;12.57;;
68993;SDS011;56054;50.968;5.816;2023-02-13T07:53:53;32.20;;;13.30;;
68993;SDS011;56054;50.968;5.816;2023-02-13T07:57:00;34.13;;;15.57;;
68993;SDS011;56054;50.968;5.816;2023-02-13T08:08:51;31.57;;;13.40;;
68993;SDS011;56054;50.968;5.816;2023-02-13T08:11:58;27.53;;;13.20;;
68993;SDS011;56054;50.968;5.816;2023-02-13T08:15:13;25.67;;;12.80;;
68993;SDS011;56054;50.968;5.816;2023-02-13T08:18:20;29.80;;;13.47;;
68993;SDS011;56054;50.968;5.816;2023-02-13T08:21:27;35.23;;;13.67;;
68993;SDS011;56054;50.968;5.816;2023-02-13T08:24:34;28.57;;;13.30;;
68993;SDS011;56054;50.968;5.816;2023-02-13T08:27:41;30.87;;;13.70;;
68993;SDS011;56054;50.968;5.816;2023-02-13T08:30:48;29.93;;;13.80;;
68993;SDS011;56054;50.968;5.816;2023-02-13T08:33:56;32.07;;;13.37;;
68993;SDS011;56054;50.968;5.816;2023-02-13T08:37:04;30.40;;;14.10;;
68993;SDS011;56054;50.968;5.816;2023-02-13T08:40:13;32.03;;;14.30;;
68993;SDS011;56054;50.968;5.816;2023-02-13T08:43:20;31.30;;;14.77;;
68993;SDS011;56054;50.968;5.816;2023-02-13T08:46:27;33.07;;;13.83;;
68993;SDS011;56054;50.968;5.816;2023-02-13T08:49:34;33.60;;;14.03;;
68993;SDS011;56054;50.968;5.816;2023-02-13T08:52:41;33.20;;;14.13;;
68993;SDS011;56054;50.968;5.816;2023-02-13T08:55:55;31.07;;;14.20;;
68993;SDS011;56054;50.968;5.816;2023-02-13T08:59:03;31.50;;;14.90;;
68993;SDS011;56054;50.968;5.816;2023-02-13T09:02:11;28.90;;;14.73;;
68993;SDS011;56054;50.968;5.816;2023-02-13T09:05:17;33.03;;;14.33;;
68993;SDS011;56054;50.968;5.816;2023-02-13T09:08:24;37.10;;;17.37;;
68993;SDS011;56054;50.968;5.816;2023-02-13T09:11:31;36.57;;;16.97;;
68993;SDS011;56054;50.968;5.816;2023-02-13T09:14:38;34.87;;;17.57;;
68993;SDS011;56054;50.968;5.816;2023-02-13T09:17:45;41.03;;;18.20;;
68993;SDS011;56054;50.968;5.816;2023-02-13T09:21:01;43.30;;;19.03;;
68993;SDS011;56054;50.968;5.816;2023-02-13T09:24:13;36.47;;;18.27;;
68993;SDS011;56054;50.968;5.816;2023-02-13T09:27:20;39.17;;;18.60;;
68993;SDS011;56054;50.968;5.816;2023-02-13T09:30:29;45.87;;;18.90;;
68993;SDS011;56054;50.968;5.816;2023-02-13T09:33:36;44.50;;;19.40;;
68993;SDS011;56054;50.968;5.816;2023-02-13T09:36:43;40.47;;;18.10;;
68993;SDS011;56054;50.968;5.816;2023-02-13T09:39:50;39.40;;;17.33;;
68993;SDS011;56054;50.968;5.816;2023-02-13T09:43:11;40.73;;;18.63;;
68993;SDS011;56054;50.968;5.816;2023-02-13T09:46:23;45.57;;;19.80;;
68993;SDS011;56054;50.968;5.816;2023-02-13T09:49:37;41.80;;;18.60;;
68993;SDS011;56054;50.968;5.816;2023-02-13T09:52:50;41.30;;;19.33;;
68993;SDS011;56054;50.968;5.816;2023-02-13T09:56:03;39.43;;;18.03;;
68993;SDS011;56054;50.968;5.816;2023-02-13T09:59:15;38.13;;;18.30;;
68993;SDS011;56054;50.968;5.816;2023-02-13T10:09:16;37.73;;;18.67;;
68993;SDS011;56054;50.968;5.816;2023-02-13T10:12:52;32.50;;;16.47;;
68993;SDS011;56054;50.968;5.816;2023-02-13T10:16:22;35.57;;;16.73;;
68993;SDS011;56054;50.968;5.816;2023-02-13T10:19:36;38.87;;;17.60;;
68993;SDS011;56054;50.968;5.816;2023-02-13T10:22:48;30.43;;;16.87;;
68993;SDS011;56054;50.968;5.816;2023-02-13T10:26:03;30.03;;;15.53;;
68993;SDS011;56054;50.968;5.816;2023-02-13T10:29:22;30.27;;;15.33;;
68993;SDS011;56054;50.968;5.816;2023-02-13T10:39:20;26.70;;;14.00;;
68993;SDS011;56054;50.968;5.816;2023-02-13T10:42:35;27.07;;;13.87;;
68993;SDS011;56054;50.968;5.816;2023-02-13T10:49:30;18.03;;;10.27;;
68993;SDS011;56054;50.968;5.816;2023-02-13T10:55:59;21.20;;;10.10;;
68993;SDS011;56054;50.968;5.816;2023-02-13T11:02:44;18.43;;;9.83;;
68993;SDS011;56054;50.968;5.816;2023-02-13T11:05:51;20.03;;;10.33;;
68993;SDS011;56054;50.968;5.816;2023-02-13T11:08:59;21.90;;;9.73;;
68993;SDS011;56054;50.968;5.816;2023-02-13T11:15:33;15.50;;;8.60;;
68993;SDS011;56054;50.968;5.816;2023-02-13T11:18:41;17.70;;;9.10;;
68993;SDS011;56054;50.968;5.816;2023-02-13T11:21:52;15.63;;;9.00;;
68993;SDS011;56054;50.968;5.816;2023-02-13T11:25:05;15.63;;;7.43;;
68993;SDS011;56054;50.968;5.816;2023-02-13T11:28:22;12.13;;;7.40;;
68993;SDS011;56054;50.968;5.816;2023-02-13T11:31:35;12.43;;;7.07;;
68993;SDS011;56054;50.968;5.816;2023-02-13T11:34:53;16.53;;;7.03;;
68993;SDS011;56054;50.968;5.816;2023-02-13T11:38:26;14.67;;;7.90;;
68993;SDS011;56054;50.968;5.816;2023-02-13T11:41:40;14.97;;;8.23;;
68993;SDS011;56054;50.968;5.816;2023-02-13T11:44:52;14.97;;;8.40;;
68993;SDS011;56054;50.968;5.816;2023-02-13T11:52:22;14.03;;;8.30;;
68993;SDS011;56054;50.968;5.816;2023-02-13T11:59:37;13.73;;;7.47;;
68993;SDS011;56054;50.968;5.816;2023-02-13T12:02:47;16.03;;;9.07;;
68993;SDS011;56054;50.968;5.816;2023-02-13T12:09:33;16.03;;;8.43;;
68993;SDS011;56054;50.968;5.816;2023-02-13T12:12:51;13.23;;;7.53;;
68993;SDS011;56054;50.968;5.816;2023-02-13T12:19:20;12.10;;;6.90;;
68993;SDS011;56054;50.968;5.816;2023-02-13T12:26:09;13.43;;;7.33;;
68993;SDS011;56054;50.968;5.816;2023-02-13T12:34:05;17.80;;;7.83;;
68993;SDS011;56054;50.968;5.816;2023-02-13T12:37:29;18.53;;;8.20;;
68993;SDS011;56054;50.968;5.816;2023-02-13T12:44:30;14.20;;;8.43;;
68993;SDS011;56054;50.968;5.816;2023-02-13T12:51:37;10.37;;;6.80;;
68993;SDS011;56054;50.968;5.816;2023-02-13T12:55:08;14.23;;;7.07;;
68993;SDS011;56054;50.968;5.816;2023-02-13T13:09:09;11.63;;;7.00;;
68993;SDS011;56054;50.968;5.816;2023-02-13T13:12:49;15.07;;;8.67;;
68993;SDS011;56054;50.968;5.816;2023-02-13T13:16:04;13.13;;;7.37;;
68993;SDS011;56054;50.968;5.816;2023-02-13T13:19:25;14.57;;;7.00;;
68993;SDS011;56054;50.968;5.816;2023-02-13T13:22:38;13.80;;;7.80;;
68993;SDS011;56054;50.968;5.816;2023-02-13T13:29:22;14.97;;;7.60;;
68993;SDS011;56054;50.968;5.816;2023-02-13T13:32:32;12.27;;;6.50;;
68993;SDS011;56054;50.968;5.816;2023-02-13T13:35:41;12.63;;;8.13;;
68993;SDS011;56054;50.968;5.816;2023-02-13T13:49:08;13.20;;;8.13;;
68993;SDS011;56054;50.968;5.816;2023-02-13T13:58:53;12.93;;;7.47;;
68993;SDS011;56054;50.968;5.816;2023-02-13T14:05:27;13.10;;;7.63;;
68993;SDS011;56054;50.968;5.816;2023-02-13T14:11:43;13.73;;;7.83;;
68993;SDS011;56054;50.968;5.816;2023-02-13T14:14:52;13.60;;;8.00;;
68993;SDS011;56054;50.968;5.816;2023-02-13T14:18:16;16.20;;;8.47;;
68993;SDS011;56054;50.968;5.816;2023-02-13T14:21:27;12.97;;;7.37;;
68993;SDS011;56054;50.968;5.816;2023-02-13T14:24:35;16.97;;;11.50;;
68993;SDS011;56054;50.968;5.816;2023-02-13T14:27:42;13.23;;;8.27;;
68993;SDS011;56054;50.968;5.816;2023-02-13T14:30:49;13.67;;;7.70;;
68993;SDS011;56054;50.968;5.816;2023-02-13T14:34:21;16.90;;;9.37;;
68993;SDS011;56054;50.968;5.816;2023-02-13T14:37:31;16.53;;;10.23;;
68993;SDS011;56054;50.968;5.816;2023-02-13T14:40:43;12.83;;;7.50;;
68993;SDS011;56054;50.968;5.816;2023-02-13T14:43:54;10.07;;;6.63;;
68993;SDS011;56054;50.968;5.816;2023-02-13T14:47:05;15.97;;;7.70;;
68993;SDS011;56054;50.968;5.816;2023-02-13T14:57:33;11.70;;;6.70;;
68993;SDS011;56054;50.968;5.816;2023-02-13T15:01:05;14.67;;;8.70;;
68993;SDS011;56054;50.968;5.816;2023-02-13T15:04:27;13.20;;;8.23;;
68993;SDS011;56054;50.968;5.816;2023-02-13T15:07:45;16.57;;;8.47;;
68993;SDS011;56054;50.968;5.816;2023-02-13T15:10:56;13.40;;;7.80;;
68993;SDS011;56054;50.968;5.816;2023-02-13T15:14:15;14.77;;;7.53;;
68993;SDS011;56054;50.968;5.816;2023-02-13T15:17:32;12.83;;;7.87;;
68993;SDS011;56054;50.968;5.816;2023-02-13T15:20:41;10.90;;;7.17;;
68993;SDS011;56054;50.968;5.816;2023-02-13T15:23:50;15.07;;;7.83;;
68993;SDS011;56054;50.968;5.816;2023-02-13T15:27:12;17.20;;;8.73;;
68993;SDS011;56054;50.968;5.816;2023-02-13T15:30:54;11.77;;;7.17;;
68993;SDS011;56054;50.968;5.816;2023-02-13T15:34:31;14.67;;;7.87;;
68993;SDS011;56054;50.968;5.816;2023-02-13T16:01:05;14.10;;;9.93;;
68993;SDS011;56054;50.968;5.816;2023-02-13T16:04:16;17.67;;;8.40;;
68993;SDS011;56054;50.968;5.816;2023-02-13T16:07:30;15.80;;;9.30;;
68993;SDS011;56054;50.968;5.816;2023-02-13T16:14:34;14.13;;;8.77;;
68993;SDS011;56054;50.968;5.816;2023-02-13T16:18:01;13.83;;;8.73;;
68993;SDS011;56054;50.968;5.816;2023-02-13T16:21:28;17.80;;;8.90;;
68993;SDS011;56054;50.968;5.816;2023-02-13T16:24:36;16.67;;;9.40;;
68993;SDS011;56054;50.968;5.816;2023-02-13T16:27:50;18.47;;;10.17;;
68993;SDS011;56054;50.968;5.816;2023-02-13T16:31:00;18.40;;;10.80;;
68993;SDS011;56054;50.968;5.816;2023-02-13T16:34:12;20.03;;;10.57;;
68993;SDS011;56054;50.968;5.816;2023-02-13T16:37:31;18.30;;;10.17;;
68993;SDS011;56054;50.968;5.816;2023-02-13T16:40:40;17.67;;;11.27;;
68993;SDS011;56054;50.968;5.816;2023-02-13T16:43:52;25.50;;;12.93;;
68993;SDS011;56054;50.968;5.816;2023-02-13T16:47:01;30.57;;;15.00;;
68993;SDS011;56054;50.968;5.816;2023-02-13T16:50:13;22.77;;;13.13;;
68993;SDS011;56054;50.968;5.816;2023-02-13T16:53:43;25.50;;;13.30;;
68993;SDS011;56054;50.968;5.816;2023-02-13T17:00:19;44.77;;;21.33;;
68993;SDS011;56054;50.968;5.816;2023-02-13T17:03:35;46.43;;;20.43;;
68993;SDS011;56054;50.968;5.816;2023-02-13T17:06:42;46.40;;;33.17;;
68993;SDS011;56054;50.968;5.816;2023-02-13T17:09:53;26.43;;;13.80;;
68993;SDS011;56054;50.968;5.816;2023-02-13T17:13:13;26.27;;;14.10;;
68993;SDS011;56054;50.968;5.816;2023-02-13T17:16:30;26.90;;;13.00;;
68993;SDS011;56054;50.968;5.816;2023-02-13T17:19:55;26.53;;;11.77;;
68993;SDS011;56054;50.968;5.816;2023-02-13T17:23:04;21.97;;;11.47;;
68993;SDS011;56054;50.968;5.816;2023-02-13T17:30:48;22.47;;;11.07;;
68993;SDS011;56054;50.968;5.816;2023-02-13T17:34:12;19.63;;;10.90;;
68993;SDS011;56054;50.968;5.816;2023-02-13T17:54:18;17.20;;;9.37;;
68993;SDS011;56054;50.968;5.816;2023-02-13T17:58:05;15.00;;;9.33;;
68993;SDS011;56054;50.968;5.816;2023-02-13T18:01:22;23.73;;;11.30;;
68993;SDS011;56054;50.968;5.816;2023-02-13T18:04:31;20.43;;;11.13;;
68993;SDS011;56054;50.968;5.816;2023-02-13T18:07:46;20.70;;;10.47;;
68993;SDS011;56054;50.968;5.816;2023-02-13T18:11:07;18.97;;;10.60;;
68993;SDS011;56054;50.968;5.816;2023-02-13T18:14:18;18.63;;;10.40;;
68993;SDS011;56054;50.968;5.816;2023-02-13T18:17:48;18.03;;;10.13;;
68993;SDS011;56054;50.968;5.816;2023-02-13T18:20:58;21.07;;;11.20;;
68993;SDS011;56054;50.968;5.816;2023-02-13T18:24:18;17.27;;;10.00;;
68993;SDS011;56054;50.968;5.816;2023-02-13T18:27:32;18.50;;;10.03;;
68993;SDS011;56054;50.968;5.816;2023-02-13T18:30:58;19.07;;;10.83;;
68993;SDS011;56054;50.968;5.816;2023-02-13T18:34:24;21.20;;;11.80;;
68993;SDS011;56054;50.968;5.816;2023-02-13T18:37:36;28.70;;;13.37;;
68993;SDS011;56054;50.968;5.816;2023-02-13T18:41:00;33.97;;;14.03;;
68993;SDS011;56054;50.968;5.816;2023-02-13T18:44:17;24.00;;;13.53;;
68993;SDS011;56054;50.968;5.816;2023-02-13T18:47:27;24.43;;;13.37;;
68993;SDS011;56054;50.968;5.816;2023-02-13T18:50:41;32.13;;;15.43;;
68993;SDS011;56054;50.968;5.816;2023-02-13T18:53:50;34.77;;;18.10;;
68993;SDS011;56054;50.968;5.816;2023-02-13T18:56:57;40.20;;;18.47;;
68993;SDS011;56054;50.968;5.816;2023-02-13T19:00:05;43.60;;;20.23;;
68993;SDS011;56054;50.968;5.816;2023-02-13T19:03:19;40.90;;;19.67;;
68993;SDS011;56054;50.968;5.816;2023-02-13T19:06:27;40.87;;;18.57;;
68993;SDS011;56054;50.968;5.816;2023-02-13T19:09:38;43.20;;;18.43;;
68993;SDS011;56054;50.968;5.816;2023-02-13T19:12:45;34.70;;;16.97;;
68993;SDS011;56054;50.968;5.816;2023-02-13T19:15:52;42.50;;;18.80;;
68993;SDS011;56054;50.968;5.816;2023-02-13T19:19:00;38.33;;;17.33;;
68993;SDS011;56054;50.968;5.816;2023-02-13T19:22:08;39.60;;;17.47;;
68993;SDS011;56054;50.968;5.816;2023-02-13T19:25:18;39.83;;;16.53;;
68993;SDS011;56054;50.968;5.816;2023-02-13T19:28:25;39.80;;;19.73;;
68993;SDS011;56054;50.968;5.816;2023-02-13T19:31:32;30.40;;;15.67;;
68993;SDS011;56054;50.968;5.816;2023-02-13T19:34:40;32.00;;;14.33;;
68993;SDS011;56054;50.968;5.816;2023-02-13T19:37:46;32.83;;;14.97;;
68993;SDS011;56054;50.968;5.816;2023-02-13T19:40:53;27.93;;;14.73;;
68993;SDS011;56054;50.968;5.816;2023-02-13T19:44:00;29.23;;;15.60;;
68993;SDS011;56054;50.968;5.816;2023-02-13T19:47:07;31.30;;;15.03;;
68993;SDS011;56054;50.968;5.816;2023-02-13T19:50:14;31.83;;;16.30;;
68993;SDS011;56054;50.968;5.816;2023-02-13T19:53:21;33.03;;;16.40;;
68993;SDS011;56054;50.968;5.816;2023-02-13T19:56:29;73.33;;;24.43;;
68993;SDS011;56054;50.968;5.816;2023-02-13T19:59:39;87.43;;;31.03;;
68993;SDS011;56054;50.968;5.816;2023-02-13T20:03:08;89.27;;;31.63;;
68993;SDS011;56054;50.968;5.816;2023-02-13T20:06:17;56.53;;;21.77;;
68993;SDS011;56054;50.968;5.816;2023-02-13T20:09:50;53.40;;;20.40;;
68993;SDS011;56054;50.968;5.816;2023-02-13T20:13:00;44.63;;;18.70;;
68993;SDS011;56054;50.968;5.816;2023-02-13T20:16:20;33.37;;;15.27;;
68993;SDS011;56054;50.968;5.816;2023-02-13T20:19:33;33.20;;;15.83;;
68993;SDS011;56054;50.968;5.816;2023-02-13T20:22:44;27.50;;;14.13;;
68993;SDS011;56054;50.968;5.816;2023-02-13T20:25:57;29.70;;;14.37;;
68993;SDS011;56054;50.968;5.816;2023-02-13T20:33:09;22.30;;;13.50;;
68993;SDS011;56054;50.968;5.816;2023-02-13T20:36:25;25.80;;;13.87;;
68993;SDS011;56054;50.968;5.816;2023-02-13T20:39:36;45.13;;;23.23;;
68993;SDS011;56054;50.968;5.816;2023-02-13T20:42:43;39.90;;;20.43;;
68993;SDS011;56054;50.968;5.816;2023-02-13T20:45:54;42.77;;;22.53;;
68993;SDS011;56054;50.968;5.816;2023-02-13T20:52:37;45.57;;;25.00;;
68993;SDS011;56054;50.968;5.816;2023-02-13T20:55:53;41.57;;;24.03;;
68993;SDS011;56054;50.968;5.816;2023-02-13T20:59:15;38.43;;;23.13;;
68993;SDS011;56054;50.968;5.816;2023-02-13T21:02:24;41.33;;;23.87;;
68993;SDS011;56054;50.968;5.816;2023-02-13T21:05:34;40.77;;;20.97;;
68993;SDS011;56054;50.968;5.816;2023-02-13T21:08:44;26.87;;;15.60;;
68993;SDS011;56054;50.968;5.816;2023-02-13T21:12:00;27.90;;;15.83;;
68993;SDS011;56054;50.968;5.816;2023-02-13T21:15:15;27.30;;;16.10;;
68993;SDS011;56054;50.968;5.816;2023-02-13T21:18:26;29.33;;;15.57;;
68993;SDS011;56054;50.968;5.816;2023-02-13T21:21:36;26.20;;;15.10;;
68993;SDS011;56054;50.968;5.816;2023-02-13T21:24:44;29.27;;;14.93;;
68993;SDS011;56054;50.968;5.816;2023-02-13T21:27:51;22.80;;;14.23;;
68993;SDS011;56054;50.968;5.816;2023-02-13T21:30:58;27.27;;;14.53;;
68993;SDS011;56054;50.968;5.816;2023-02-13T21:34:13;34.43;;;14.93;;
68993;SDS011;56054;50.968;5.816;2023-02-13T21:37:31;25.07;;;14.07;;
68993;SDS011;56054;50.968;5.816;2023-02-13T22:01:54;25.43;;;12.57;;
68993;SDS011;56054;50.968;5.816;2023-02-13T22:05:10;22.43;;;13.63;;
68993;SDS011;56054;50.968;5.816;2023-02-13T22:12:02;23.10;;;13.10;;
68993;SDS011;56054;50.968;5.816;2023-02-13T22:22:58;30.07;;;15.33;;
68993;SDS011;56054;50.968;5.816;2023-02-13T22:29:59;23.93;;;14.67;;
68993;SDS011;56054;50.968;5.816;2023-02-13T22:36:52;31.60;;;14.37;;
68993;SDS011;56054;50.968;5.816;2023-02-13T22:43:42;26.83;;;13.47;;
68993;SDS011;56054;50.968;5.816;2023-02-13T22:46:56;28.00;;;13.97;;
68993;SDS011;56054;50.968;5.816;2023-02-13T22:50:06;24.57;;;14.00;;
68993;SDS011;56054;50.968;5.816;2023-02-13T22:56:54;24.60;;;13.70;;
68993;SDS011;56054;50.968;5.816;2023-02-13T23:00:04;27.97;;;14.37;;
68993;SDS011;56054;50.968;5.816;2023-02-13T23:03:21;26.03;;;14.30;;
68993;SDS011;56054;50.968;5.816;2023-02-13T23:11:15;25.00;;;14.03;;
68993;SDS011;56054;50.968;5.816;2023-02-13T23:14:30;26.70;;;14.23;;
68993;SDS011;56054;50.968;5.816;2023-02-13T23:17:40;28.97;;;14.63;;
68993;SDS011;56054;50.968;5.816;2023-02-13T23:21:04;28.60;;;15.33;;
68993;SDS011;56054;50.968;5.816;2023-02-13T23:57:09;33.97;;;19.30;;
